sensor_id;sensor_type;location;lat;lon;timestamp;P1;durP1;ratioP1;P2;durP2;ratioP2
36061;SDS011;22123;52.412;20.970;2022-07-23T00:02:21;20.02;;;16.02;;
36061;SDS011;22123;52.412;20.970;2022-07-23T00:04:47;20.88;;;14.77;;
36061;SDS011;22123;52.412;20.970;2022-07-23T00:07:12;19.80;;;15.30;;
36061;SDS011;22123;52.412;20.970;2022-07-23T00:09:37;23.85;;;15.90;;
36061;SDS011;22123;52.412;20.970;2022-07-23T00:12:03;23.95;;;15.57;;
36061;SDS011;22123;52.412;20.970;2022-07-23T00:14:29;18.73;;;15.27;;
36061;SDS011;22123;52.412;20.970;2022-07-23T00:16:54;20.70;;;14.52;;
36061;SDS011;22123;52.412;20.970;2022-07-23T00:19:20;18.70;;;14.88;;
36061;SDS011;22123;52.412;20.970;2022-07-23T00:21:45;21.85;;;15.68;;
36061;SDS011;22123;52.412;20.970;2022-07-23T00:24:11;21.23;;;14.60;;
36061;SDS011;22123;52.412;20.970;2022-07-23T00:26:36;16.83;;;14.63;;
36061;SDS011;22123;52.412;20.970;2022-07-23T00:29:01;24.08;;;14.98;;
36061;SDS011;22123;52.412;20.970;2022-07-23T00:31:27;18.98;;;14.45;;
36061;SDS011;22123;52.412;20.970;2022-07-23T00:33:52;24.95;;;15.85;;
36061;SDS011;22123;52.412;20.970;2022-07-23T00:36:21;18.42;;;15.52;;
36061;SDS011;22123;52.412;20.970;2022-07-23T00:38:48;19.88;;;15.68;;
36061;SDS011;22123;52.412;20.970;2022-07-23T00:41:14;21.35;;;15.70;;
36061;SDS011;22123;52.412;20.970;2022-07-23T00:43:40;17.02;;;14.10;;
36061;SDS011;22123;52.412;20.970;2022-07-23T00:46:06;21.45;;;16.13;;
36061;SDS011;22123;52.412;20.970;2022-07-23T00:48:31;17.85;;;14.77;;
36061;SDS011;22123;52.412;20.970;2022-07-23T00:50:58;19.13;;;16.08;;
36061;SDS011;22123;52.412;20.970;2022-07-23T00:53:23;18.17;;;15.05;;
36061;SDS011;22123;52.412;20.970;2022-07-23T00:55:49;20.05;;;16.33;;
36061;SDS011;22123;52.412;20.970;2022-07-23T00:58:15;28.23;;;17.88;;
36061;SDS011;22123;52.412;20.970;2022-07-23T01:00:41;19.23;;;16.10;;
36061;SDS011;22123;52.412;20.970;2022-07-23T01:03:07;19.15;;;16.52;;
36061;SDS011;22123;52.412;20.970;2022-07-23T01:05:33;21.52;;;16.35;;
36061;SDS011;22123;52.412;20.970;2022-07-23T01:07:58;24.15;;;15.10;;
36061;SDS011;22123;52.412;20.970;2022-07-23T01:10:24;18.45;;;15.82;;
36061;SDS011;22123;52.412;20.970;2022-07-23T01:12:56;20.95;;;16.80;;
36061;SDS011;22123;52.412;20.970;2022-07-23T01:15:22;18.80;;;15.35;;
36061;SDS011;22123;52.412;20.970;2022-07-23T01:17:48;19.67;;;15.32;;
36061;SDS011;22123;52.412;20.970;2022-07-23T01:20:13;17.10;;;14.18;;
36061;SDS011;22123;52.412;20.970;2022-07-23T01:22:39;20.60;;;15.80;;
36061;SDS011;22123;52.412;20.970;2022-07-23T01:25:04;22.95;;;16.67;;
36061;SDS011;22123;52.412;20.970;2022-07-23T01:27:30;19.75;;;16.02;;
36061;SDS011;22123;52.412;20.970;2022-07-23T01:29:56;19.17;;;15.15;;
36061;SDS011;22123;52.412;20.970;2022-07-23T01:32:24;16.60;;;14.80;;
36061;SDS011;22123;52.412;20.970;2022-07-23T01:34:50;18.00;;;16.13;;
36061;SDS011;22123;52.412;20.970;2022-07-23T01:37:15;17.05;;;14.95;;
36061;SDS011;22123;52.412;20.970;2022-07-23T01:39:40;19.27;;;15.70;;
36061;SDS011;22123;52.412;20.970;2022-07-23T01:42:06;17.77;;;14.95;;
36061;SDS011;22123;52.412;20.970;2022-07-23T01:44:31;23.48;;;16.67;;
36061;SDS011;22123;52.412;20.970;2022-07-23T01:46:57;17.05;;;15.18;;
36061;SDS011;22123;52.412;20.970;2022-07-23T01:49:23;20.63;;;15.25;;
36061;SDS011;22123;52.412;20.970;2022-07-23T01:51:48;22.27;;;15.80;;
36061;SDS011;22123;52.412;20.970;2022-07-23T01:54:26;24.08;;;17.20;;
36061;SDS011;22123;52.412;20.970;2022-07-23T01:56:52;19.70;;;14.93;;
36061;SDS011;22123;52.412;20.970;2022-07-23T01:59:18;23.15;;;16.15;;
36061;SDS011;22123;52.412;20.970;2022-07-23T02:01:43;19.67;;;15.15;;
36061;SDS011;22123;52.412;20.970;2022-07-23T02:04:08;21.13;;;15.88;;
36061;SDS011;22123;52.412;20.970;2022-07-23T02:06:34;22.60;;;16.60;;
36061;SDS011;22123;52.412;20.970;2022-07-23T02:08:59;20.52;;;16.63;;
36061;SDS011;22123;52.412;20.970;2022-07-23T02:11:24;20.65;;;16.40;;
36061;SDS011;22123;52.412;20.970;2022-07-23T02:13:50;18.10;;;15.23;;
36061;SDS011;22123;52.412;20.970;2022-07-23T02:16:15;20.00;;;15.68;;
36061;SDS011;22123;52.412;20.970;2022-07-23T02:18:41;20.23;;;17.00;;
36061;SDS011;22123;52.412;20.970;2022-07-23T02:21:06;18.67;;;15.90;;
36061;SDS011;22123;52.412;20.970;2022-07-23T02:23:31;17.50;;;14.60;;
36061;SDS011;22123;52.412;20.970;2022-07-23T02:25:57;16.10;;;14.40;;
36061;SDS011;22123;52.412;20.970;2022-07-23T02:28:22;21.23;;;16.65;;
36061;SDS011;22123;52.412;20.970;2022-07-23T02:30:48;22.13;;;16.98;;
36061;SDS011;22123;52.412;20.970;2022-07-23T02:33:13;20.95;;;15.50;;
36061;SDS011;22123;52.412;20.970;2022-07-23T02:35:39;18.10;;;15.40;;
36061;SDS011;22123;52.412;20.970;2022-07-23T02:38:04;20.48;;;16.02;;
36061;SDS011;22123;52.412;20.970;2022-07-23T02:40:30;19.23;;;16.23;;
36061;SDS011;22123;52.412;20.970;2022-07-23T02:42:55;16.52;;;14.82;;
36061;SDS011;22123;52.412;20.970;2022-07-23T02:45:21;20.63;;;16.13;;
36061;SDS011;22123;52.412;20.970;2022-07-23T02:47:46;21.60;;;16.63;;
36061;SDS011;22123;52.412;20.970;2022-07-23T02:50:11;22.08;;;16.80;;
36061;SDS011;22123;52.412;20.970;2022-07-23T02:52:37;22.75;;;17.20;;
36061;SDS011;22123;52.412;20.970;2022-07-23T02:55:03;21.88;;;17.92;;
36061;SDS011;22123;52.412;20.970;2022-07-23T02:57:29;18.73;;;16.50;;
36061;SDS011;22123;52.412;20.970;2022-07-23T02:59:55;25.13;;;18.60;;
36061;SDS011;22123;52.412;20.970;2022-07-23T03:02:20;20.63;;;18.40;;
36061;SDS011;22123;52.412;20.970;2022-07-23T03:04:46;19.65;;;16.27;;
36061;SDS011;22123;52.412;20.970;2022-07-23T03:07:11;22.17;;;17.65;;
36061;SDS011;22123;52.412;20.970;2022-07-23T03:09:37;20.00;;;16.85;;
36061;SDS011;22123;52.412;20.970;2022-07-23T03:12:02;22.77;;;17.63;;
36061;SDS011;22123;52.412;20.970;2022-07-23T03:14:28;26.88;;;18.55;;
36061;SDS011;22123;52.412;20.970;2022-07-23T03:16:54;24.30;;;17.23;;
36061;SDS011;22123;52.412;20.970;2022-07-23T03:19:19;28.75;;;16.55;;
36061;SDS011;22123;52.412;20.970;2022-07-23T03:21:45;33.00;;;18.63;;
36061;SDS011;22123;52.412;20.970;2022-07-23T03:24:10;24.52;;;17.10;;
36061;SDS011;22123;52.412;20.970;2022-07-23T03:26:36;27.80;;;17.13;;
36061;SDS011;22123;52.412;20.970;2022-07-23T03:29:02;22.48;;;17.20;;
36061;SDS011;22123;52.412;20.970;2022-07-23T03:31:29;19.52;;;16.50;;
36061;SDS011;22123;52.412;20.970;2022-07-23T03:33:56;23.08;;;16.48;;
36061;SDS011;22123;52.412;20.970;2022-07-23T03:36:22;24.40;;;17.10;;
36061;SDS011;22123;52.412;20.970;2022-07-23T03:38:47;20.45;;;17.02;;
36061;SDS011;22123;52.412;20.970;2022-07-23T03:41:13;19.77;;;16.83;;
36061;SDS011;22123;52.412;20.970;2022-07-23T03:43:38;21.42;;;16.77;;
36061;SDS011;22123;52.412;20.970;2022-07-23T03:46:04;20.27;;;17.73;;
36061;SDS011;22123;52.412;20.970;2022-07-23T03:48:29;24.52;;;17.90;;
36061;SDS011;22123;52.412;20.970;2022-07-23T03:50:55;20.13;;;17.92;;
36061;SDS011;22123;52.412;20.970;2022-07-23T03:53:20;18.13;;;16.10;;
36061;SDS011;22123;52.412;20.970;2022-07-23T03:55:46;24.58;;;18.52;;
36061;SDS011;22123;52.412;20.970;2022-07-23T03:58:11;21.20;;;16.63;;
36061;SDS011;22123;52.412;20.970;2022-07-23T04:00:36;21.13;;;18.35;;
36061;SDS011;22123;52.412;20.970;2022-07-23T04:03:03;20.30;;;17.95;;
36061;SDS011;22123;52.412;20.970;2022-07-23T04:05:28;23.70;;;18.52;;
36061;SDS011;22123;52.412;20.970;2022-07-23T04:07:54;20.17;;;16.95;;
36061;SDS011;22123;52.412;20.970;2022-07-23T04:10:19;21.13;;;17.42;;
36061;SDS011;22123;52.412;20.970;2022-07-23T04:12:45;22.95;;;18.08;;
36061;SDS011;22123;52.412;20.970;2022-07-23T04:15:10;20.42;;;17.67;;
36061;SDS011;22123;52.412;20.970;2022-07-23T04:17:36;21.23;;;16.45;;
36061;SDS011;22123;52.412;20.970;2022-07-23T04:20:02;26.95;;;18.73;;
36061;SDS011;22123;52.412;20.970;2022-07-23T04:22:28;24.35;;;19.55;;
36061;SDS011;22123;52.412;20.970;2022-07-23T04:24:53;24.92;;;18.92;;
36061;SDS011;22123;52.412;20.970;2022-07-23T04:27:19;22.08;;;19.48;;
36061;SDS011;22123;52.412;20.970;2022-07-23T04:29:44;22.48;;;18.50;;
36061;SDS011;22123;52.412;20.970;2022-07-23T04:32:10;22.73;;;19.30;;
36061;SDS011;22123;52.412;20.970;2022-07-23T04:34:35;23.58;;;19.60;;
36061;SDS011;22123;52.412;20.970;2022-07-23T04:37:00;25.45;;;20.60;;
36061;SDS011;22123;52.412;20.970;2022-07-23T04:39:26;24.42;;;19.95;;
36061;SDS011;22123;52.412;20.970;2022-07-23T04:41:51;22.95;;;18.02;;
36061;SDS011;22123;52.412;20.970;2022-07-23T04:44:17;21.55;;;19.05;;
36061;SDS011;22123;52.412;20.970;2022-07-23T04:46:42;23.48;;;18.38;;
36061;SDS011;22123;52.412;20.970;2022-07-23T04:49:08;22.35;;;18.10;;
36061;SDS011;22123;52.412;20.970;2022-07-23T04:51:33;24.98;;;19.40;;
36061;SDS011;22123;52.412;20.970;2022-07-23T04:53:58;28.20;;;18.60;;
36061;SDS011;22123;52.412;20.970;2022-07-23T04:56:24;19.85;;;17.67;;
36061;SDS011;22123;52.412;20.970;2022-07-23T04:58:49;24.58;;;17.70;;
36061;SDS011;22123;52.412;20.970;2022-07-23T05:01:15;19.08;;;16.58;;
36061;SDS011;22123;52.412;20.970;2022-07-23T05:03:40;22.10;;;17.42;;
36061;SDS011;22123;52.412;20.970;2022-07-23T05:06:05;21.60;;;17.75;;
36061;SDS011;22123;52.412;20.970;2022-07-23T05:08:31;20.95;;;16.30;;
36061;SDS011;22123;52.412;20.970;2022-07-23T05:10:56;22.05;;;17.10;;
36061;SDS011;22123;52.412;20.970;2022-07-23T05:13:22;25.50;;;17.02;;
36061;SDS011;22123;52.412;20.970;2022-07-23T05:15:47;25.60;;;16.40;;
36061;SDS011;22123;52.412;20.970;2022-07-23T05:18:13;20.92;;;16.17;;
36061;SDS011;22123;52.412;20.970;2022-07-23T05:20:39;22.25;;;16.55;;
36061;SDS011;22123;52.412;20.970;2022-07-23T05:23:04;21.65;;;15.65;;
36061;SDS011;22123;52.412;20.970;2022-07-23T05:25:31;19.10;;;17.05;;
36061;SDS011;22123;52.412;20.970;2022-07-23T05:27:57;20.58;;;15.45;;
36061;SDS011;22123;52.412;20.970;2022-07-23T05:30:22;20.17;;;15.10;;
36061;SDS011;22123;52.412;20.970;2022-07-23T05:32:48;21.17;;;15.60;;
36061;SDS011;22123;52.412;20.970;2022-07-23T05:35:13;19.92;;;15.95;;
36061;SDS011;22123;52.412;20.970;2022-07-23T05:37:38;22.17;;;16.05;;
36061;SDS011;22123;52.412;20.970;2022-07-23T05:40:05;18.45;;;16.45;;
36061;SDS011;22123;52.412;20.970;2022-07-23T05:42:39;23.08;;;15.52;;
36061;SDS011;22123;52.412;20.970;2022-07-23T05:45:05;15.70;;;14.00;;
36061;SDS011;22123;52.412;20.970;2022-07-23T05:47:45;18.50;;;15.10;;
36061;SDS011;22123;52.412;20.970;2022-07-23T05:50:12;19.40;;;15.48;;
36061;SDS011;22123;52.412;20.970;2022-07-23T05:52:38;19.75;;;15.00;;
36061;SDS011;22123;52.412;20.970;2022-07-23T05:55:05;18.27;;;14.02;;
36061;SDS011;22123;52.412;20.970;2022-07-23T05:57:31;18.77;;;14.45;;
36061;SDS011;22123;52.412;20.970;2022-07-23T05:59:56;17.88;;;14.80;;
36061;SDS011;22123;52.412;20.970;2022-07-23T06:02:22;22.27;;;13.80;;
36061;SDS011;22123;52.412;20.970;2022-07-23T06:04:47;15.93;;;13.10;;
36061;SDS011;22123;52.412;20.970;2022-07-23T06:07:13;18.08;;;13.10;;
36061;SDS011;22123;52.412;20.970;2022-07-23T06:09:38;17.15;;;14.82;;
36061;SDS011;22123;52.412;20.970;2022-07-23T06:12:03;23.52;;;13.07;;
36061;SDS011;22123;52.412;20.970;2022-07-23T06:14:29;19.00;;;13.05;;
36061;SDS011;22123;52.412;20.970;2022-07-23T06:16:55;18.15;;;14.50;;
36061;SDS011;22123;52.412;20.970;2022-07-23T06:19:20;17.98;;;13.52;;
36061;SDS011;22123;52.412;20.970;2022-07-23T06:21:45;19.88;;;14.10;;
36061;SDS011;22123;52.412;20.970;2022-07-23T06:24:11;18.80;;;13.15;;
36061;SDS011;22123;52.412;20.970;2022-07-23T06:26:36;15.35;;;11.82;;
36061;SDS011;22123;52.412;20.970;2022-07-23T06:29:02;18.23;;;12.27;;
36061;SDS011;22123;52.412;20.970;2022-07-23T06:31:27;15.10;;;12.30;;
36061;SDS011;22123;52.412;20.970;2022-07-23T06:33:53;17.77;;;13.40;;
36061;SDS011;22123;52.412;20.970;2022-07-23T06:36:18;14.45;;;12.02;;
36061;SDS011;22123;52.412;20.970;2022-07-23T06:38:44;15.77;;;12.00;;
36061;SDS011;22123;52.412;20.970;2022-07-23T06:41:09;18.55;;;11.77;;
36061;SDS011;22123;52.412;20.970;2022-07-23T06:43:34;14.95;;;10.95;;
36061;SDS011;22123;52.412;20.970;2022-07-23T06:46:00;17.02;;;10.40;;
36061;SDS011;22123;52.412;20.970;2022-07-23T06:48:25;13.60;;;10.23;;
36061;SDS011;22123;52.412;20.970;2022-07-23T06:50:51;15.82;;;10.07;;
36061;SDS011;22123;52.412;20.970;2022-07-23T06:53:17;12.73;;;9.20;;
36061;SDS011;22123;52.412;20.970;2022-07-23T06:55:43;16.65;;;9.25;;
36061;SDS011;22123;52.412;20.970;2022-07-23T06:58:08;10.40;;;9.32;;
36061;SDS011;22123;52.412;20.970;2022-07-23T07:00:35;13.98;;;8.40;;
36061;SDS011;22123;52.412;20.970;2022-07-23T07:03:01;9.85;;;7.80;;
36061;SDS011;22123;52.412;20.970;2022-07-23T07:05:26;9.88;;;8.02;;
36061;SDS011;22123;52.412;20.970;2022-07-23T07:07:53;9.82;;;7.95;;
36061;SDS011;22123;52.412;20.970;2022-07-23T07:10:21;12.98;;;8.80;;
36061;SDS011;22123;52.412;20.970;2022-07-23T07:12:47;8.52;;;7.57;;
36061;SDS011;22123;52.412;20.970;2022-07-23T07:15:12;8.93;;;7.22;;
36061;SDS011;22123;52.412;20.970;2022-07-23T07:17:38;11.73;;;8.13;;
36061;SDS011;22123;52.412;20.970;2022-07-23T07:20:04;9.60;;;7.47;;
36061;SDS011;22123;52.412;20.970;2022-07-23T07:22:30;11.40;;;7.60;;
36061;SDS011;22123;52.412;20.970;2022-07-23T07:24:56;8.07;;;7.28;;
36061;SDS011;22123;52.412;20.970;2022-07-23T07:27:23;11.32;;;8.43;;
36061;SDS011;22123;52.412;20.970;2022-07-23T07:29:48;12.35;;;8.15;;
36061;SDS011;22123;52.412;20.970;2022-07-23T07:32:14;8.05;;;7.22;;
36061;SDS011;22123;52.412;20.970;2022-07-23T07:34:39;13.85;;;8.07;;
36061;SDS011;22123;52.412;20.970;2022-07-23T07:37:05;10.88;;;7.47;;
36061;SDS011;22123;52.412;20.970;2022-07-23T07:39:30;11.27;;;7.57;;
36061;SDS011;22123;52.412;20.970;2022-07-23T07:41:56;12.77;;;7.53;;
36061;SDS011;22123;52.412;20.970;2022-07-23T07:44:21;8.38;;;7.53;;
36061;SDS011;22123;52.412;20.970;2022-07-23T07:46:47;12.18;;;7.60;;
36061;SDS011;22123;52.412;20.970;2022-07-23T07:49:12;8.30;;;6.97;;
36061;SDS011;22123;52.412;20.970;2022-07-23T07:51:37;9.77;;;6.80;;
36061;SDS011;22123;52.412;20.970;2022-07-23T07:54:03;9.75;;;6.85;;
36061;SDS011;22123;52.412;20.970;2022-07-23T07:56:29;9.20;;;7.25;;
36061;SDS011;22123;52.412;20.970;2022-07-23T07:58:54;8.13;;;6.68;;
36061;SDS011;22123;52.412;20.970;2022-07-23T08:01:20;8.77;;;7.18;;
36061;SDS011;22123;52.412;20.970;2022-07-23T08:03:45;7.95;;;6.70;;
36061;SDS011;22123;52.412;20.970;2022-07-23T08:06:11;7.43;;;6.53;;
36061;SDS011;22123;52.412;20.970;2022-07-23T08:08:36;7.35;;;6.65;;
36061;SDS011;22123;52.412;20.970;2022-07-23T08:11:02;7.15;;;6.47;;
36061;SDS011;22123;52.412;20.970;2022-07-23T08:13:28;10.45;;;7.00;;
36061;SDS011;22123;52.412;20.970;2022-07-23T08:18:28;8.60;;;6.40;;
36061;SDS011;22123;52.412;20.970;2022-07-23T08:20:54;10.98;;;6.50;;
36061;SDS011;22123;52.412;20.970;2022-07-23T08:23:20;7.15;;;6.03;;
36061;SDS011;22123;52.412;20.970;2022-07-23T08:25:45;7.88;;;6.38;;
36061;SDS011;22123;52.412;20.970;2022-07-23T08:28:12;7.15;;;6.00;;
36061;SDS011;22123;52.412;20.970;2022-07-23T08:30:39;8.32;;;5.90;;
36061;SDS011;22123;52.412;20.970;2022-07-23T08:33:07;9.20;;;5.78;;
36061;SDS011;22123;52.412;20.970;2022-07-23T08:35:39;10.45;;;6.07;;
36061;SDS011;22123;52.412;20.970;2022-07-23T08:38:10;6.95;;;6.05;;
36061;SDS011;22123;52.412;20.970;2022-07-23T08:40:37;8.05;;;5.85;;
36061;SDS011;22123;52.412;20.970;2022-07-23T08:43:08;12.77;;;5.65;;
36061;SDS011;22123;52.412;20.970;2022-07-23T08:45:37;9.60;;;5.93;;
36061;SDS011;22123;52.412;20.970;2022-07-23T08:48:05;9.75;;;5.90;;
36061;SDS011;22123;52.412;20.970;2022-07-23T08:50:34;7.35;;;6.65;;
36061;SDS011;22123;52.412;20.970;2022-07-23T08:53:02;9.43;;;6.30;;
36061;SDS011;22123;52.412;20.970;2022-07-23T08:55:30;6.40;;;5.57;;
36061;SDS011;22123;52.412;20.970;2022-07-23T08:57:55;6.32;;;5.57;;
36061;SDS011;22123;52.412;20.970;2022-07-23T09:00:21;11.68;;;5.70;;
36061;SDS011;22123;52.412;20.970;2022-07-23T09:02:47;9.82;;;6.07;;
36061;SDS011;22123;52.412;20.970;2022-07-23T09:05:14;6.93;;;5.57;;
36061;SDS011;22123;52.412;20.970;2022-07-23T09:10:28;5.43;;;4.93;;
36061;SDS011;22123;52.412;20.970;2022-07-23T09:12:54;6.72;;;5.38;;
36061;SDS011;22123;52.412;20.970;2022-07-23T09:15:20;6.13;;;5.07;;
36061;SDS011;22123;52.412;20.970;2022-07-23T09:17:45;9.52;;;5.80;;
36061;SDS011;22123;52.412;20.970;2022-07-23T09:20:14;9.77;;;5.78;;
36061;SDS011;22123;52.412;20.970;2022-07-23T09:25:12;7.20;;;5.35;;
36061;SDS011;22123;52.412;20.970;2022-07-23T09:27:55;10.07;;;6.10;;
36061;SDS011;22123;52.412;20.970;2022-07-23T09:30:23;8.20;;;5.75;;
36061;SDS011;22123;52.412;20.970;2022-07-23T09:33:23;7.65;;;5.93;;
36061;SDS011;22123;52.412;20.970;2022-07-23T09:35:54;6.80;;;6.03;;
36061;SDS011;22123;52.412;20.970;2022-07-23T09:38:23;8.00;;;6.15;;
36061;SDS011;22123;52.412;20.970;2022-07-23T09:41:08;11.13;;;6.90;;
36061;SDS011;22123;52.412;20.970;2022-07-23T09:43:36;9.15;;;6.10;;
36061;SDS011;22123;52.412;20.970;2022-07-23T09:48:48;6.47;;;5.63;;
36061;SDS011;22123;52.412;20.970;2022-07-23T09:51:14;6.28;;;5.47;;
36061;SDS011;22123;52.412;20.970;2022-07-23T09:53:46;10.85;;;5.75;;
36061;SDS011;22123;52.412;20.970;2022-07-23T09:56:12;10.73;;;5.82;;
36061;SDS011;22123;52.412;20.970;2022-07-23T09:58:40;8.10;;;5.82;;
36061;SDS011;22123;52.412;20.970;2022-07-23T10:01:11;8.57;;;6.45;;
36061;SDS011;22123;52.412;20.970;2022-07-23T10:03:38;8.55;;;6.80;;
36061;SDS011;22123;52.412;20.970;2022-07-23T10:06:05;7.18;;;5.30;;
36061;SDS011;22123;52.412;20.970;2022-07-23T10:08:32;6.95;;;5.95;;
36061;SDS011;22123;52.412;20.970;2022-07-23T10:10:59;8.50;;;5.32;;
36061;SDS011;22123;52.412;20.970;2022-07-23T10:13:26;10.32;;;6.22;;
36061;SDS011;22123;52.412;20.970;2022-07-23T10:16:10;7.82;;;5.25;;
36061;SDS011;22123;52.412;20.970;2022-07-23T10:18:36;5.38;;;4.88;;
36061;SDS011;22123;52.412;20.970;2022-07-23T10:21:03;7.15;;;4.95;;
36061;SDS011;22123;52.412;20.970;2022-07-23T10:24:16;7.57;;;5.50;;
36061;SDS011;22123;52.412;20.970;2022-07-23T10:37:34;5.40;;;4.40;;
36061;SDS011;22123;52.412;20.970;2022-07-23T10:40:14;5.40;;;4.15;;
36061;SDS011;22123;52.412;20.970;2022-07-23T10:42:45;6.07;;;3.80;;
36061;SDS011;22123;52.412;20.970;2022-07-23T10:47:48;6.15;;;3.60;;
36061;SDS011;22123;52.412;20.970;2022-07-23T10:50:27;5.82;;;4.10;;
36061;SDS011;22123;52.412;20.970;2022-07-23T10:58:02;6.25;;;3.75;;
36061;SDS011;22123;52.412;20.970;2022-07-23T11:00:29;6.43;;;4.07;;
36061;SDS011;22123;52.412;20.970;2022-07-23T11:02:57;7.90;;;3.70;;
36061;SDS011;22123;52.412;20.970;2022-07-23T11:05:38;7.57;;;4.32;;
36061;SDS011;22123;52.412;20.970;2022-07-23T11:10:35;11.18;;;3.85;;
36061;SDS011;22123;52.412;20.970;2022-07-23T11:32:36;6.85;;;5.10;;
36061;SDS011;22123;52.412;20.970;2022-07-23T11:34:49;5.00;;;4.57;;
36061;SDS011;22123;52.412;20.970;2022-07-23T11:39:53;9.18;;;4.85;;
36061;SDS011;22123;52.412;20.970;2022-07-23T11:42:20;8.45;;;5.25;;
36061;SDS011;22123;52.412;20.970;2022-07-23T11:44:46;5.72;;;4.80;;
36061;SDS011;22123;52.412;20.970;2022-07-23T11:47:13;6.25;;;5.00;;
36061;SDS011;22123;52.412;20.970;2022-07-23T11:49:38;14.45;;;5.55;;
36061;SDS011;22123;52.412;20.970;2022-07-23T11:52:16;6.43;;;4.93;;
36061;SDS011;22123;52.412;20.970;2022-07-23T11:54:53;7.10;;;5.30;;
36061;SDS011;22123;52.412;20.970;2022-07-23T11:57:21;8.23;;;5.07;;
36061;SDS011;22123;52.412;20.970;2022-07-23T11:59:51;8.52;;;5.43;;
36061;SDS011;22123;52.412;20.970;2022-07-23T12:02:20;10.18;;;5.78;;
36061;SDS011;22123;52.412;20.970;2022-07-23T12:04:47;6.15;;;5.18;;
36061;SDS011;22123;52.412;20.970;2022-07-23T12:07:49;7.15;;;5.72;;
36061;SDS011;22123;52.412;20.970;2022-07-23T12:10:11;8.43;;;5.63;;
36061;SDS011;22123;52.412;20.970;2022-07-23T12:12:50;7.40;;;5.47;;
36061;SDS011;22123;52.412;20.970;2022-07-23T12:15:18;8.32;;;5.55;;
36061;SDS011;22123;52.412;20.970;2022-07-23T12:20:14;6.68;;;5.53;;
36061;SDS011;22123;52.412;20.970;2022-07-23T12:22:43;6.95;;;5.20;;
36061;SDS011;22123;52.412;20.970;2022-07-23T12:25:11;11.15;;;5.45;;
36061;SDS011;22123;52.412;20.970;2022-07-23T12:27:40;8.43;;;5.13;;
36061;SDS011;22123;52.412;20.970;2022-07-23T12:30:22;8.70;;;5.93;;
36061;SDS011;22123;52.412;20.970;2022-07-23T12:32:53;5.63;;;5.13;;
36061;SDS011;22123;52.412;20.970;2022-07-23T12:35:21;10.85;;;4.97;;
36061;SDS011;22123;52.412;20.970;2022-07-23T12:37:49;6.28;;;5.60;;
36061;SDS011;22123;52.412;20.970;2022-07-23T12:42:49;8.00;;;5.18;;
36061;SDS011;22123;52.412;20.970;2022-07-23T12:45:17;7.65;;;5.22;;
36061;SDS011;22123;52.412;20.970;2022-07-23T12:53:03;6.72;;;5.47;;
36061;SDS011;22123;52.412;20.970;2022-07-23T12:55:30;14.80;;;5.53;;
36061;SDS011;22123;52.412;20.970;2022-07-23T12:58:03;9.50;;;5.32;;
36061;SDS011;22123;52.412;20.970;2022-07-23T13:00:48;8.82;;;5.60;;
36061;SDS011;22123;52.412;20.970;2022-07-23T13:06:19;6.03;;;4.88;;
36061;SDS011;22123;52.412;20.970;2022-07-23T13:08:44;9.80;;;5.90;;
36061;SDS011;22123;52.412;20.970;2022-07-23T13:11:10;8.15;;;5.47;;
36061;SDS011;22123;52.412;20.970;2022-07-23T13:13:35;6.25;;;5.40;;
36061;SDS011;22123;52.412;20.970;2022-07-23T13:16:01;12.25;;;5.40;;
36061;SDS011;22123;52.412;20.970;2022-07-23T13:18:27;8.10;;;5.75;;
36061;SDS011;22123;52.412;20.970;2022-07-23T13:20:53;5.88;;;5.28;;
36061;SDS011;22123;52.412;20.970;2022-07-23T13:23:20;6.43;;;5.65;;
36061;SDS011;22123;52.412;20.970;2022-07-23T13:25:46;6.97;;;5.13;;
36061;SDS011;22123;52.412;20.970;2022-07-23T13:28:13;6.03;;;5.40;;
36061;SDS011;22123;52.412;20.970;2022-07-23T13:30:40;6.00;;;5.38;;
36061;SDS011;22123;52.412;20.970;2022-07-23T13:33:07;7.03;;;5.13;;
36061;SDS011;22123;52.412;20.970;2022-07-23T13:35:33;9.82;;;5.68;;
36061;SDS011;22123;52.412;20.970;2022-07-23T13:38:00;5.25;;;4.75;;
36061;SDS011;22123;52.412;20.970;2022-07-23T13:40:26;6.47;;;5.15;;
36061;SDS011;22123;52.412;20.970;2022-07-23T13:42:51;6.93;;;5.00;;
36061;SDS011;22123;52.412;20.970;2022-07-23T13:45:17;5.75;;;4.95;;
36061;SDS011;22123;52.412;20.970;2022-07-23T13:47:42;8.13;;;5.05;;
36061;SDS011;22123;52.412;20.970;2022-07-23T13:50:08;6.78;;;5.18;;
36061;SDS011;22123;52.412;20.970;2022-07-23T13:52:34;6.97;;;5.22;;
36061;SDS011;22123;52.412;20.970;2022-07-23T13:55:03;8.30;;;5.20;;
36061;SDS011;22123;52.412;20.970;2022-07-23T13:57:31;6.22;;;5.20;;
36061;SDS011;22123;52.412;20.970;2022-07-23T13:59:57;7.55;;;4.95;;
36061;SDS011;22123;52.412;20.970;2022-07-23T14:02:22;8.43;;;5.40;;
36061;SDS011;22123;52.412;20.970;2022-07-23T14:04:48;10.18;;;6.15;;
36061;SDS011;22123;52.412;20.970;2022-07-23T14:07:14;11.18;;;7.40;;
36061;SDS011;22123;52.412;20.970;2022-07-23T14:09:40;7.45;;;6.60;;
36061;SDS011;22123;52.412;20.970;2022-07-23T14:12:05;9.77;;;6.63;;
36061;SDS011;22123;52.412;20.970;2022-07-23T14:14:31;8.77;;;6.18;;
36061;SDS011;22123;52.412;20.970;2022-07-23T14:16:57;9.60;;;7.70;;
36061;SDS011;22123;52.412;20.970;2022-07-23T14:19:23;12.35;;;9.02;;
36061;SDS011;22123;52.412;20.970;2022-07-23T14:21:48;13.50;;;7.78;;
36061;SDS011;22123;52.412;20.970;2022-07-23T14:24:14;14.32;;;7.63;;
36061;SDS011;22123;52.412;20.970;2022-07-23T14:26:41;8.45;;;6.43;;
36061;SDS011;22123;52.412;20.970;2022-07-23T14:29:06;11.23;;;5.90;;
36061;SDS011;22123;52.412;20.970;2022-07-23T14:31:32;10.07;;;5.90;;
36061;SDS011;22123;52.412;20.970;2022-07-23T14:33:57;8.55;;;5.90;;
36061;SDS011;22123;52.412;20.970;2022-07-23T14:36:24;15.02;;;6.03;;
36061;SDS011;22123;52.412;20.970;2022-07-23T14:38:49;8.45;;;5.90;;
36061;SDS011;22123;52.412;20.970;2022-07-23T14:41:14;9.38;;;5.82;;
36061;SDS011;22123;52.412;20.970;2022-07-23T14:43:40;7.85;;;5.38;;
36061;SDS011;22123;52.412;20.970;2022-07-23T14:46:06;18.38;;;5.93;;
36061;SDS011;22123;52.412;20.970;2022-07-23T14:48:31;9.95;;;5.65;;
36061;SDS011;22123;52.412;20.970;2022-07-23T14:50:57;12.27;;;6.07;;
36061;SDS011;22123;52.412;20.970;2022-07-23T14:53:22;30.42;;;5.90;;
36061;SDS011;22123;52.412;20.970;2022-07-23T14:55:48;17.70;;;5.20;;
36061;SDS011;22123;52.412;20.970;2022-07-23T14:58:13;15.82;;;6.07;;
36061;SDS011;22123;52.412;20.970;2022-07-23T15:00:39;38.33;;;7.50;;
36061;SDS011;22123;52.412;20.970;2022-07-23T15:03:04;24.40;;;6.57;;
36061;SDS011;22123;52.412;20.970;2022-07-23T15:05:29;18.73;;;6.97;;
36061;SDS011;22123;52.412;20.970;2022-07-23T15:07:55;15.88;;;7.15;;
36061;SDS011;22123;52.412;20.970;2022-07-23T15:10:21;18.80;;;8.48;;
36061;SDS011;22123;52.412;20.970;2022-07-23T15:12:46;24.70;;;10.43;;
36061;SDS011;22123;52.412;20.970;2022-07-23T15:15:12;22.83;;;12.55;;
36061;SDS011;22123;52.412;20.970;2022-07-23T15:17:38;21.52;;;12.13;;
36061;SDS011;22123;52.412;20.970;2022-07-23T15:25:54;22.20;;;15.13;;
36061;SDS011;22123;52.412;20.970;2022-07-23T15:28:20;21.23;;;13.60;;
36061;SDS011;22123;52.412;20.970;2022-07-23T15:30:45;21.08;;;15.55;;